createdAt,value
2023-04-18T00:00:12.640Z,33.50
2023-04-18T00:02:48.591Z,32.40
2023-04-18T00:05:22.069Z,32.40
2023-04-18T00:07:55.353Z,30.80
2023-04-18T00:10:27.962Z,30.50
2023-04-18T00:13:00.813Z,23.00
2023-04-18T00:15:35.685Z,25.40
2023-04-18T00:18:09.121Z,23.70
2023-04-18T00:20:42.223Z,18.50
2023-04-18T00:23:15.319Z,14.80
2023-04-18T00:25:48.087Z,12.20
2023-04-18T00:28:20.806Z,12.80
2023-04-18T00:30:55.040Z,13.80
2023-04-18T00:33:28.319Z,15.70
2023-04-18T00:36:01.022Z,21.30
2023-04-18T00:38:33.878Z,20.40
2023-04-18T00:41:06.687Z,20.70
2023-04-18T00:43:39.667Z,22.00
2023-04-18T00:46:12.347Z,23.30
2023-04-18T00:48:45.239Z,20.90
2023-04-18T00:51:18.018Z,20.40
2023-04-18T00:53:50.882Z,20.90
2023-04-18T00:56:26.112Z,21.80
2023-04-18T00:58:59.533Z,19.80
2023-04-18T01:01:33.901Z,19.00
2023-04-18T01:04:07.300Z,16.20
2023-04-18T01:06:41.104Z,18.40
2023-04-18T01:09:14.210Z,20.20
2023-04-18T01:11:47.145Z,21.90
2023-04-18T01:14:22.403Z,18.90
2023-04-18T01:16:55.063Z,21.40
2023-04-18T01:19:28.633Z,22.40
2023-04-18T01:22:01.311Z,20.80
2023-04-18T01:24:34.572Z,22.30
2023-04-18T01:27:07.207Z,20.80
2023-04-18T01:29:40.022Z,23.90
2023-04-18T01:32:12.777Z,22.90
2023-04-18T01:34:45.594Z,19.60
2023-04-18T01:37:18.402Z,21.40
2023-04-18T01:39:51.126Z,24.60
2023-04-18T01:42:25.509Z,25.50
2023-04-18T01:44:58.264Z,23.80
2023-04-18T01:47:31.222Z,25.80
2023-04-18T01:50:04.941Z,23.80
2023-04-18T01:52:37.905Z,19.40
2023-04-18T01:55:11.884Z,20.70
2023-04-18T01:57:44.444Z,23.90
2023-04-18T02:00:18.125Z,22.60
2023-04-18T02:02:51.776Z,22.20
2023-04-18T02:05:27.534Z,22.00
2023-04-18T02:08:00.671Z,21.10
2023-04-18T02:10:34.384Z,21.00
2023-04-18T02:13:08.058Z,15.90
2023-04-18T02:15:41.976Z,16.70
2023-04-18T02:18:14.735Z,18.40
2023-04-18T02:20:47.737Z,16.50
2023-04-18T02:23:20.284Z,23.50
2023-04-18T02:25:53.747Z,28.90
2023-04-18T02:28:27.209Z,30.10
2023-04-18T02:31:00.886Z,31.10
2023-04-18T02:33:34.001Z,30.10
2023-04-18T02:36:08.160Z,27.80
2023-04-18T02:38:42.477Z,27.10
2023-04-18T02:41:22.898Z,24.50
2023-04-18T02:43:56.247Z,23.70
2023-04-18T02:46:30.151Z,24.00
2023-04-18T02:49:03.128Z,23.60
2023-04-18T02:51:36.682Z,18.40
2023-04-18T02:54:09.873Z,18.30
2023-04-18T02:57:06.284Z,16.50
2023-04-18T02:59:57.885Z,23.30
2023-04-18T03:03:00.121Z,26.20
2023-04-18T03:05:42.821Z,24.90
2023-04-18T03:08:16.711Z,23.20
2023-04-18T03:10:49.451Z,20.50
2023-04-18T03:13:23.930Z,24.90
2023-04-18T03:15:57.337Z,27.20
2023-04-18T03:18:30.811Z,29.30
2023-04-18T03:21:04.871Z,36.60
2023-04-18T03:23:38.654Z,43.30
2023-04-18T03:26:14.141Z,39.60
2023-04-18T03:28:47.686Z,34.60
2023-04-18T03:31:21.365Z,37.50
2023-04-18T03:33:54.063Z,41.00
2023-04-18T03:36:29.015Z,37.00
2023-04-18T03:39:02.188Z,30.70
2023-04-18T03:41:35.148Z,25.80
2023-04-18T03:44:09.190Z,23.60
2023-04-18T03:46:43.139Z,19.40
2023-04-18T03:49:15.999Z,17.40
2023-04-18T03:51:49.512Z,18.20
2023-04-18T03:54:22.296Z,15.50
2023-04-18T03:56:55.953Z,17.20
2023-04-18T03:59:29.642Z,17.20
2023-04-18T04:02:02.529Z,20.50
2023-04-18T04:04:35.526Z,22.90
2023-04-18T04:07:08.553Z,19.90
2023-04-18T04:09:43.023Z,16.00
2023-04-18T04:12:16.260Z,15.80
2023-04-18T04:14:49.372Z,14.70
2023-04-18T04:17:22.762Z,16.60
2023-04-18T04:19:56.666Z,16.80
2023-04-18T04:22:30.438Z,16.50
2023-04-18T04:25:03.374Z,18.80
2023-04-18T04:27:42.984Z,16.50
2023-04-18T04:30:18.371Z,17.80
2023-04-18T04:32:51.606Z,16.90
2023-04-18T04:35:24.530Z,18.70
2023-04-18T04:38:07.957Z,13.40
2023-04-18T04:40:49.688Z,12.60
2023-04-18T04:43:23.781Z,16.90
2023-04-18T04:46:00.110Z,16.70
2023-04-18T04:48:34.462Z,16.00
2023-04-18T04:51:09.339Z,15.40
2023-04-18T04:53:42.279Z,14.60
2023-04-18T04:56:15.344Z,14.70
2023-04-18T04:58:49.282Z,15.60
2023-04-18T05:01:27.488Z,14.60
2023-04-18T05:04:00.390Z,12.10
2023-04-18T05:06:33.406Z,13.00
2023-04-18T05:09:06.591Z,13.90
2023-04-18T05:11:40.099Z,12.90
2023-04-18T05:14:13.655Z,14.80
2023-04-18T05:16:47.094Z,17.00
2023-04-18T05:19:20.722Z,14.90
2023-04-18T05:21:53.705Z,18.20
2023-04-18T05:24:26.657Z,23.10
2023-04-18T05:26:59.590Z,20.70
2023-04-18T05:29:32.543Z,18.90
2023-04-18T05:32:06.617Z,15.20
2023-04-18T05:34:40.608Z,13.50
2023-04-18T05:37:14.810Z,10.60
2023-04-18T05:39:48.536Z,12.90
2023-04-18T05:42:22.213Z,13.50
2023-04-18T05:44:55.094Z,17.00
2023-04-18T05:47:30.727Z,15.60
2023-04-18T05:50:04.327Z,13.20
2023-04-18T05:52:38.197Z,11.10
2023-04-18T05:55:12.120Z,19.30
2023-04-18T05:57:46.073Z,14.40
2023-04-18T06:00:20.591Z,11.30
2023-04-18T06:02:53.852Z,13.30
2023-04-18T06:05:27.504Z,11.80
2023-04-18T06:08:00.828Z,7.30
2023-04-18T06:10:34.425Z,9.60
2023-04-18T06:13:07.587Z,8.30
2023-04-18T06:15:41.168Z,8.50
2023-04-18T06:18:13.923Z,5.80
2023-04-18T06:20:46.921Z,8.40
2023-04-18T06:23:19.875Z,7.20
2023-04-18T06:25:52.931Z,5.70
2023-04-18T06:28:25.947Z,7.00
2023-04-18T06:30:58.615Z,5.90
2023-04-18T06:33:32.546Z,6.70
2023-04-18T06:36:05.467Z,7.80
2023-04-18T06:38:39.273Z,6.40
2023-04-18T06:41:14.049Z,6.20
2023-04-18T06:43:59.735Z,6.90
2023-04-18T06:46:36.051Z,6.40
2023-04-18T06:49:09.156Z,6.30
2023-04-18T06:51:42.170Z,6.90
2023-04-18T06:54:16.148Z,8.30
2023-04-18T06:56:49.328Z,10.20
2023-04-18T06:59:23.773Z,16.10
2023-04-18T07:01:56.549Z,17.10
2023-04-18T07:04:29.613Z,17.20
2023-04-18T07:07:04.154Z,13.20
2023-04-18T07:09:37.093Z,9.80
2023-04-18T07:12:10.211Z,11.40
2023-04-18T07:14:43.344Z,8.10
2023-04-18T07:17:16.110Z,7.90
2023-04-18T07:19:48.823Z,7.10
2023-04-18T07:22:21.759Z,7.60
2023-04-18T07:24:54.851Z,6.90
2023-04-18T07:27:27.494Z,5.90
2023-04-18T07:30:00.286Z,7.20
2023-04-18T07:32:33.379Z,6.30
2023-04-18T07:35:06.321Z,6.20
2023-04-18T07:37:39.246Z,6.10
2023-04-18T07:40:14.536Z,8.40
2023-04-18T07:42:47.255Z,8.60
2023-04-18T07:45:20.316Z,8.40
2023-04-18T07:47:53.708Z,6.00
2023-04-18T07:50:27.169Z,7.70
2023-04-18T07:53:00.044Z,11.80
2023-04-18T07:55:33.202Z,11.20
2023-04-18T07:58:05.957Z,7.70
2023-04-18T08:00:40.380Z,6.20
2023-04-18T08:03:13.929Z,5.80
2023-04-18T08:05:47.162Z,5.90
2023-04-18T08:08:19.997Z,6.10
2023-04-18T08:10:53.178Z,7.10
2023-04-18T08:13:26.272Z,6.50
2023-04-18T08:16:00.046Z,6.60
2023-04-18T08:18:32.721Z,8.00
2023-04-18T08:21:05.844Z,6.40
2023-04-18T08:23:38.739Z,6.70
2023-04-18T08:26:11.413Z,9.00
2023-04-18T08:28:46.559Z,10.40
2023-04-18T08:31:19.612Z,12.00
2023-04-18T08:33:52.758Z,10.30
2023-04-18T08:36:27.081Z,8.10
2023-04-18T08:38:59.634Z,6.10
2023-04-18T08:41:33.757Z,8.70
2023-04-18T08:44:06.483Z,6.70
2023-04-18T08:46:39.218Z,6.40
2023-04-18T08:49:12.971Z,7.10
2023-04-18T08:51:46.782Z,5.50
2023-04-18T08:54:21.262Z,6.00
2023-04-18T08:57:07.904Z,5.80
2023-04-18T08:59:43.750Z,6.60
2023-04-18T09:02:18.324Z,6.90
2023-04-18T09:04:57.721Z,5.10
2023-04-18T09:07:31.934Z,5.80
2023-04-18T09:10:04.926Z,6.20
2023-04-18T09:12:42.723Z,5.10
2023-04-18T09:15:16.058Z,5.30
2023-04-18T09:17:51.176Z,5.70
2023-04-18T09:20:35.289Z,5.40
2023-04-18T09:23:11.322Z,6.10
2023-04-18T09:25:48.276Z,6.60
2023-04-18T09:28:29.044Z,6.40
2023-04-18T09:31:10.444Z,7.60
2023-04-18T09:33:46.704Z,6.00
2023-04-18T09:36:23.530Z,6.10
2023-04-18T09:38:57.172Z,4.70
2023-04-18T09:41:30.779Z,5.50
2023-04-18T09:44:15.336Z,5.50
2023-04-18T09:46:49.622Z,5.40
2023-04-18T09:49:22.296Z,6.00
2023-04-18T09:51:55.330Z,7.10
2023-04-18T09:54:28.233Z,6.20
2023-04-18T09:57:01.138Z,5.40
2023-04-18T09:59:39.777Z,6.70
2023-04-18T10:02:16.193Z,5.10
2023-04-18T10:04:49.127Z,5.40
2023-04-18T10:07:21.721Z,5.40
2023-04-18T10:09:54.582Z,6.00
2023-04-18T10:12:27.361Z,4.90
2023-04-18T10:14:59.976Z,5.00
2023-04-18T10:17:32.597Z,5.60
2023-04-18T10:20:17.704Z,5.00
2023-04-18T10:22:50.383Z,5.40
2023-04-18T10:25:52.344Z,4.40
2023-04-18T10:31:04.069Z,5.40
2023-04-18T10:33:42.430Z,5.80
2023-04-18T10:36:20.758Z,4.20
2023-04-18T10:38:56.143Z,4.90
2023-04-18T10:41:29.892Z,5.90
2023-04-18T10:44:23.818Z,5.50
2023-04-18T10:47:21.510Z,5.50
2023-04-18T10:50:01.566Z,4.80
2023-04-18T10:52:35.025Z,4.30
2023-04-18T10:55:26.090Z,4.80
2023-04-18T10:57:59.001Z,4.10
2023-04-18T11:00:31.730Z,4.80
2023-04-18T11:03:04.878Z,5.10
2023-04-18T11:05:37.666Z,6.30
2023-04-18T11:08:25.335Z,5.70
2023-04-18T11:11:03.333Z,5.90
2023-04-18T11:13:37.813Z,5.60
2023-04-18T11:16:11.895Z,5.00
2023-04-18T11:18:44.652Z,4.30
2023-04-18T11:21:17.349Z,5.00
2023-04-18T11:23:49.942Z,3.60
2023-04-18T11:26:25.304Z,4.20
2023-04-18T11:28:59.434Z,5.20
2023-04-18T11:31:32.094Z,4.60
2023-04-18T11:34:05.731Z,5.00
2023-04-18T11:36:38.968Z,4.90
2023-04-18T11:39:11.998Z,4.20
2023-04-18T11:41:50.709Z,4.60
2023-04-18T11:44:26.043Z,4.90
2023-04-18T11:46:58.694Z,3.90
2023-04-18T11:49:33.103Z,4.80
2023-04-18T11:52:09.964Z,4.20
2023-04-18T11:54:44.109Z,4.20
2023-04-18T11:57:27.243Z,3.60
2023-04-18T12:00:01.168Z,4.60
2023-04-18T12:02:44.560Z,5.40
2023-04-18T12:05:28.314Z,4.90
2023-04-18T12:08:09.401Z,5.00
2023-04-18T12:10:48.291Z,4.50
2023-04-18T12:13:21.063Z,4.60
2023-04-18T12:15:53.660Z,4.60
2023-04-18T12:18:26.544Z,4.10
2023-04-18T12:21:02.549Z,4.20
2023-04-18T12:23:37.420Z,6.40
2023-04-18T12:26:13.170Z,3.80
2023-04-18T12:28:48.286Z,4.20
2023-04-18T12:31:21.790Z,4.10
2023-04-18T12:33:54.627Z,3.30
2023-04-18T12:36:28.755Z,4.60
2023-04-18T12:39:02.549Z,3.80
2023-04-18T12:41:35.136Z,4.00
2023-04-18T12:44:08.210Z,5.30
2023-04-18T12:46:41.256Z,4.60
2023-04-18T12:49:14.246Z,4.00
2023-04-18T12:51:46.853Z,5.20
2023-04-18T12:54:20.220Z,8.40
2023-04-18T12:56:52.883Z,8.30
2023-04-18T12:59:25.875Z,7.90
2023-04-18T13:01:58.555Z,4.30
2023-04-18T13:04:31.708Z,4.00
2023-04-18T13:07:04.922Z,4.50
2023-04-18T13:09:37.676Z,3.20
2023-04-18T13:12:12.302Z,3.30
2023-04-18T13:14:45.757Z,4.30
2023-04-18T13:17:18.669Z,4.20
2023-04-18T13:19:51.351Z,4.30
2023-04-18T13:22:24.095Z,5.00
2023-04-18T13:24:56.882Z,3.70
2023-04-18T13:27:29.449Z,3.90
2023-04-18T13:30:02.303Z,4.50
2023-04-18T13:32:36.032Z,6.30
2023-04-18T13:35:10.185Z,4.80
2023-04-18T13:37:42.978Z,6.20
2023-04-18T13:40:16.313Z,6.70
2023-04-18T13:42:49.264Z,8.30
2023-04-18T13:45:22.626Z,7.50
2023-04-18T13:47:55.893Z,7.90
2023-04-18T13:50:28.827Z,7.80
2023-04-18T13:53:01.533Z,8.60
2023-04-18T13:55:34.705Z,8.80
2023-04-18T13:58:08.673Z,8.30
2023-04-18T14:00:42.537Z,6.90
2023-04-18T14:03:15.669Z,5.70
2023-04-18T14:05:48.643Z,6.70
2023-04-18T14:08:21.773Z,8.20
2023-04-18T14:10:54.600Z,8.80
2023-04-18T14:13:27.416Z,9.10
2023-04-18T14:16:00.375Z,9.20
2023-04-18T14:18:41.657Z,9.00
2023-04-18T14:21:14.668Z,10.20
2023-04-18T14:23:47.241Z,11.70
2023-04-18T14:26:20.007Z,12.60
2023-04-18T14:28:52.966Z,11.10
2023-04-18T14:31:29.126Z,8.30
2023-04-18T14:34:02.039Z,5.40
2023-04-18T14:36:34.733Z,4.80
2023-04-18T14:39:07.857Z,6.40
2023-04-18T14:41:40.706Z,6.10
2023-04-18T14:44:13.772Z,8.10
2023-04-18T14:46:46.782Z,7.90
2023-04-18T14:49:19.652Z,9.20
2023-04-18T14:51:52.317Z,7.10
2023-04-18T14:54:24.958Z,7.60
2023-04-18T14:56:57.807Z,7.00
2023-04-18T14:59:30.678Z,8.60
2023-04-18T15:02:03.539Z,7.20
2023-04-18T15:04:36.660Z,8.70
2023-04-18T15:07:09.358Z,8.90
2023-04-18T15:09:42.065Z,9.70
2023-04-18T15:12:15.736Z,7.90
2023-04-18T15:14:48.905Z,8.50
2023-04-18T15:17:21.826Z,10.30
2023-04-18T15:19:54.703Z,10.00
2023-04-18T15:22:27.785Z,10.30
2023-04-18T15:25:00.746Z,9.40
2023-04-18T15:27:34.167Z,7.80
2023-04-18T15:30:09.854Z,5.10
2023-04-18T15:32:42.924Z,5.10
2023-04-18T15:35:15.960Z,6.10
2023-04-18T15:37:49.365Z,5.70
2023-04-18T15:40:22.437Z,6.40
2023-04-18T15:42:56.214Z,5.70
2023-04-18T15:45:28.867Z,5.20
2023-04-18T15:48:01.488Z,4.80
2023-04-18T15:50:34.823Z,5.40
2023-04-18T15:53:07.453Z,5.70
2023-04-18T15:55:40.556Z,6.10
2023-04-18T15:58:13.332Z,5.60
2023-04-18T16:00:46.728Z,7.40
2023-04-18T16:03:19.971Z,8.40
2023-04-18T16:05:53.312Z,6.80
2023-04-18T16:08:26.676Z,7.30
2023-04-18T16:10:59.640Z,5.40
2023-04-18T16:13:32.647Z,5.10
2023-04-18T16:16:05.919Z,5.70
2023-04-18T16:18:40.310Z,5.40
2023-04-18T16:21:15.794Z,6.80
2023-04-18T16:23:49.086Z,7.50
2023-04-18T16:26:25.044Z,7.50
2023-04-18T16:28:57.708Z,7.00
2023-04-18T16:31:30.434Z,7.50
2023-04-18T16:34:03.767Z,7.60
2023-04-18T16:36:37.316Z,8.70
2023-04-18T16:39:09.990Z,8.10
2023-04-18T16:41:42.755Z,8.80
2023-04-18T16:44:15.606Z,10.20
2023-04-18T16:46:48.676Z,9.60
2023-04-18T16:49:21.551Z,9.50
2023-04-18T16:51:54.302Z,8.10
2023-04-18T16:54:27.211Z,7.60
2023-04-18T16:57:01.178Z,7.00
2023-04-18T16:59:34.959Z,5.80
2023-04-18T17:02:07.779Z,7.40
2023-04-18T17:04:42.508Z,7.10
2023-04-18T17:07:15.313Z,6.60
2023-04-18T17:09:48.168Z,6.50
2023-04-18T17:12:22.360Z,7.10
2023-04-18T17:14:55.337Z,6.30
2023-04-18T17:17:28.157Z,6.80
2023-04-18T17:20:01.812Z,8.60
2023-04-18T17:22:35.797Z,8.40
2023-04-18T17:25:09.955Z,9.50
2023-04-18T17:27:43.781Z,10.60
2023-04-18T17:30:16.854Z,9.00
2023-04-18T17:32:51.371Z,11.50
2023-04-18T17:35:24.779Z,10.70
2023-04-18T17:37:57.421Z,11.50
2023-04-18T17:40:30.455Z,13.90
2023-04-18T17:43:03.463Z,20.20
2023-04-18T17:45:37.748Z,25.10
2023-04-18T17:48:10.835Z,24.70
2023-04-18T17:50:43.959Z,22.10
2023-04-18T17:53:17.830Z,20.80
2023-04-18T17:55:52.357Z,20.20
2023-04-18T17:58:25.363Z,17.90
2023-04-18T18:00:58.359Z,16.50
2023-04-18T18:03:31.663Z,14.90
2023-04-18T18:06:04.819Z,14.90
2023-04-18T18:08:38.261Z,14.80
2023-04-18T18:11:11.435Z,15.50
2023-04-18T18:13:44.561Z,18.00
2023-04-18T18:16:17.336Z,21.20
2023-04-18T18:18:51.163Z,17.20
2023-04-18T18:21:23.869Z,16.60
2023-04-18T18:23:57.161Z,15.70
2023-04-18T18:26:29.820Z,16.10
2023-04-18T18:29:09.191Z,12.90
2023-04-18T18:31:42.580Z,10.90
2023-04-18T18:34:16.066Z,10.70
2023-04-18T18:36:49.238Z,10.30
2023-04-18T18:39:22.334Z,8.40
2023-04-18T18:41:55.409Z,7.60
2023-04-18T18:44:28.015Z,8.20
2023-04-18T18:47:00.915Z,7.80
2023-04-18T18:49:33.983Z,7.70
2023-04-18T18:52:06.990Z,7.90
2023-04-18T18:54:40.286Z,6.60
2023-04-18T18:57:13.306Z,8.30
2023-04-18T18:59:46.470Z,7.60
2023-04-18T19:02:19.628Z,7.70
2023-04-18T19:04:52.815Z,9.20
2023-04-18T19:07:28.328Z,10.80
2023-04-18T19:10:03.148Z,10.40
2023-04-18T19:12:36.490Z,11.30
2023-04-18T19:15:11.376Z,16.70
2023-04-18T19:17:44.553Z,24.20
2023-04-18T19:20:17.295Z,22.40
2023-04-18T19:22:50.088Z,20.30
2023-04-18T19:25:24.801Z,19.30
2023-04-18T19:27:57.524Z,16.60
2023-04-18T19:30:30.260Z,15.70
2023-04-18T19:33:03.185Z,14.90
2023-04-18T19:35:37.927Z,13.70
2023-04-18T19:38:10.994Z,13.70
2023-04-18T19:40:43.891Z,16.20
2023-04-18T19:43:16.606Z,18.70
2023-04-18T19:45:49.592Z,22.60
2023-04-18T19:48:22.759Z,23.80
2023-04-18T19:50:55.618Z,23.60
2023-04-18T19:53:29.006Z,22.70
2023-04-18T19:56:01.777Z,21.00
2023-04-18T19:58:40.245Z,21.50
2023-04-18T20:01:14.058Z,17.50
2023-04-18T20:03:47.165Z,19.20
2023-04-18T20:06:20.461Z,18.60
2023-04-18T20:08:53.680Z,21.50
2023-04-18T20:11:26.633Z,21.10
2023-04-18T20:13:59.469Z,26.20
2023-04-18T20:16:32.969Z,22.00
2023-04-18T20:19:05.875Z,15.70
2023-04-18T20:21:39.161Z,15.90
2023-04-18T20:24:12.412Z,14.50
2023-04-18T20:26:45.049Z,15.30
2023-04-18T20:29:17.926Z,13.80
2023-04-18T20:31:50.622Z,13.70
2023-04-18T20:34:23.398Z,9.90
2023-04-18T20:36:58.091Z,10.30
2023-04-18T20:39:31.801Z,9.60
2023-04-18T20:42:04.548Z,11.30
2023-04-18T20:44:37.543Z,9.80
2023-04-18T20:47:10.342Z,11.20
2023-04-18T20:49:43.162Z,9.80
2023-04-18T20:52:16.068Z,9.10
2023-04-18T20:54:49.240Z,9.00
2023-04-18T20:57:22.232Z,12.50
2023-04-18T20:59:58.773Z,17.70
2023-04-18T21:02:31.592Z,25.50
2023-04-18T21:05:04.791Z,33.90
2023-04-18T21:07:38.971Z,35.40
2023-04-18T21:10:12.954Z,39.80
2023-04-18T21:12:46.712Z,40.40
2023-04-18T21:15:19.739Z,42.80
2023-04-18T21:17:53.031Z,49.30
2023-04-18T21:20:26.531Z,41.30
2023-04-18T21:22:59.328Z,33.70
2023-04-18T21:25:32.171Z,29.70
2023-04-18T21:28:04.960Z,24.40
2023-04-18T21:30:37.999Z,22.70
2023-04-18T21:33:10.611Z,17.90
2023-04-18T21:35:43.610Z,18.40
2023-04-18T21:38:16.674Z,19.60
2023-04-18T21:40:49.423Z,17.50
2023-04-18T21:43:22.051Z,16.80
2023-04-18T21:45:55.002Z,14.90
2023-04-18T21:48:27.631Z,17.10
2023-04-18T21:51:00.235Z,18.20
2023-04-18T21:53:33.074Z,13.30
2023-04-18T21:56:05.973Z,13.80
2023-04-18T21:58:39.010Z,13.20
2023-04-18T22:01:11.850Z,12.40
2023-04-18T22:03:44.852Z,13.10
2023-04-18T22:06:17.776Z,12.70
2023-04-18T22:08:51.864Z,9.80
2023-04-18T22:11:24.852Z,9.60
2023-04-18T22:13:58.326Z,8.30
2023-04-18T22:16:31.313Z,8.90
2023-04-18T22:19:04.429Z,8.00
2023-04-18T22:21:38.272Z,8.00
2023-04-18T22:24:12.350Z,8.00
2023-04-18T22:26:45.318Z,7.60
2023-04-18T22:29:17.957Z,7.20
2023-04-18T22:31:51.184Z,7.10
2023-04-18T22:34:23.800Z,7.90
2023-04-18T22:36:56.700Z,7.50
2023-04-18T22:39:31.599Z,7.40
2023-04-18T22:42:04.252Z,6.90
2023-04-18T22:44:37.896Z,6.30
2023-04-18T22:47:10.640Z,7.00
2023-04-18T22:49:43.203Z,6.60
2023-04-18T22:52:15.984Z,7.00
2023-04-18T22:54:48.634Z,6.70
2023-04-18T22:57:21.376Z,7.30
2023-04-18T22:59:53.979Z,7.30
2023-04-18T23:02:27.096Z,7.40
2023-04-18T23:05:02.583Z,8.50
2023-04-18T23:07:35.338Z,8.40
2023-04-18T23:10:11.636Z,6.80
2023-04-18T23:12:44.939Z,7.90
2023-04-18T23:15:17.720Z,7.30
2023-04-18T23:17:50.793Z,8.60
2023-04-18T23:20:24.242Z,7.90
2023-04-18T23:22:56.877Z,9.20
2023-04-18T23:25:29.673Z,7.20
2023-04-18T23:28:02.594Z,10.00
2023-04-18T23:30:38.227Z,8.00
2023-04-18T23:33:10.960Z,7.70
2023-04-18T23:35:43.824Z,6.60
2023-04-18T23:38:16.359Z,7.90
2023-04-18T23:40:49.208Z,8.00
2023-04-18T23:43:21.868Z,8.10
2023-04-18T23:45:54.594Z,8.20
2023-04-18T23:48:27.747Z,6.90
2023-04-18T23:51:00.608Z,6.90
2023-04-18T23:53:33.221Z,8.30
2023-04-18T23:56:06.318Z,7.80
2023-04-18T23:58:39.064Z,7.50
